createdAt,value
2019-03-17T00:00:28.732Z,75.10
2019-03-17T00:02:57.994Z,75.10
2019-03-17T00:05:26.915Z,75.30
2019-03-17T00:07:56.259Z,75.30
2019-03-17T00:10:26.924Z,75.30
2019-03-17T00:12:57.668Z,75.30
2019-03-17T00:15:26.831Z,75.10
2019-03-17T00:17:55.833Z,75.10
2019-03-17T00:20:24.767Z,75.20
2019-03-17T00:22:54.315Z,75.30
2019-03-17T00:25:23.241Z,75.50
2019-03-17T00:27:56.441Z,75.40
2019-03-17T00:30:28.400Z,75.50
2019-03-17T00:33:03.084Z,75.60
2019-03-17T00:35:32.089Z,75.60
2019-03-17T00:38:04.640Z,75.50
2019-03-17T00:40:33.529Z,75.50
2019-03-17T00:43:02.611Z,75.50
2019-03-17T00:45:31.658Z,75.50
2019-03-17T00:48:00.554Z,75.60
2019-03-17T00:50:29.737Z,75.60
2019-03-17T00:52:59.011Z,75.70
2019-03-17T00:55:27.930Z,75.80
2019-03-17T00:57:59.491Z,75.80
2019-03-17T01:00:27.652Z,75.80
2019-03-17T01:02:56.562Z,75.80
2019-03-17T01:05:25.860Z,75.90
2019-03-17T01:07:54.860Z,75.80
2019-03-17T01:10:23.969Z,76.50
2019-03-17T01:12:53.210Z,76.10
2019-03-17T01:15:22.141Z,76.20
2019-03-17T01:17:51.057Z,76.20
2019-03-17T01:20:21.657Z,76.10
2019-03-17T01:22:55.758Z,76.30
2019-03-17T01:25:24.926Z,76.20
2019-03-17T01:27:53.776Z,76.20
2019-03-17T01:30:22.954Z,76.10
2019-03-17T01:32:57.050Z,76.20
2019-03-17T01:35:25.921Z,76.20
2019-03-17T01:37:54.888Z,76.20
2019-03-17T01:40:23.779Z,76.20
2019-03-17T01:42:52.966Z,76.20
2019-03-17T01:45:21.962Z,76.20
2019-03-17T01:47:51.645Z,76.20
2019-03-17T01:50:20.674Z,76.20
2019-03-17T01:53:38.920Z,76.20
2019-03-17T01:56:07.862Z,76.30
2019-03-17T01:58:36.786Z,76.30
2019-03-17T02:01:05.961Z,76.30
2019-03-17T02:03:35.968Z,76.40
2019-03-17T02:06:04.890Z,76.30
2019-03-17T02:08:33.901Z,76.30
2019-03-17T02:11:02.959Z,76.30
2019-03-17T02:13:37.015Z,76.30
2019-03-17T02:16:06.240Z,76.30
2019-03-17T02:18:36.968Z,76.30
2019-03-17T02:21:33.162Z,76.30
2019-03-17T02:28:29.730Z,76.30
2019-03-17T02:31:28.504Z,76.20
2019-03-17T02:34:00.235Z,76.30
2019-03-17T02:36:31.485Z,76.20
2019-03-17T02:40:06.142Z,76.20
2019-03-17T02:42:53.971Z,76.10
2019-03-17T02:45:26.662Z,75.80
2019-03-17T02:55:02.760Z,75.50
2019-03-17T02:58:04.433Z,75.40
2019-03-17T03:01:35.640Z,75.40
2019-03-17T03:08:06.125Z,74.60
2019-03-17T03:14:13.001Z,73.90
2019-03-17T03:16:50.911Z,73.80
2019-03-17T03:19:38.525Z,73.60
2019-03-17T03:22:18.814Z,73.40
2019-03-17T03:24:53.991Z,73.30
2019-03-17T03:27:30.820Z,73.00
2019-03-17T03:30:02.031Z,72.60
2019-03-17T03:32:39.623Z,72.40
2019-03-17T03:35:14.484Z,72.20
2019-03-17T03:37:48.397Z,71.90
2019-03-17T03:55:45.076Z,71.20
2019-03-17T03:58:37.182Z,71.20
2019-03-17T04:01:33.379Z,71.00
2019-03-17T04:04:14.122Z,71.00
2019-03-17T04:06:48.959Z,70.90
2019-03-17T04:09:43.793Z,70.80
2019-03-17T04:12:38.436Z,70.80
2019-03-17T04:15:36.796Z,70.70
2019-03-17T04:18:17.096Z,70.70
2019-03-17T04:21:31.195Z,70.70
2019-03-17T04:24:18.323Z,70.60
2019-03-17T04:26:53.217Z,70.50
2019-03-17T04:29:26.350Z,70.40
2019-03-17T04:32:09.396Z,70.30
2019-03-17T04:34:46.682Z,70.40
2019-03-17T04:37:26.128Z,70.20
2019-03-17T04:40:01.796Z,70.10
2019-03-17T04:42:57.295Z,70.10
2019-03-17T04:45:30.623Z,70.00
2019-03-17T04:48:06.751Z,69.80
2019-03-17T04:51:17.773Z,69.80
2019-03-17T04:57:17.358Z,69.50
2019-03-17T05:00:02.192Z,69.30
2019-03-17T05:05:34.921Z,69.20
2019-03-17T05:08:21.276Z,69.20
2019-03-17T05:10:52.609Z,69.10
2019-03-17T05:13:36.208Z,69.10
2019-03-17T05:16:15.907Z,69.00
2019-03-17T05:18:57.477Z,68.80
2019-03-17T05:21:35.629Z,68.70
2019-03-17T05:24:09.449Z,68.60
2019-03-17T05:26:53.621Z,68.60
2019-03-17T05:29:46.515Z,68.50
2019-03-17T05:32:28.082Z,68.40
2019-03-17T05:35:07.505Z,68.50
2019-03-17T05:37:41.319Z,68.50
2019-03-17T05:40:17.092Z,68.40
2019-03-17T05:43:01.853Z,68.50
2019-03-17T05:45:34.668Z,68.50
2019-03-17T05:48:17.842Z,68.30
2019-03-17T05:51:45.321Z,68.30
2019-03-17T05:54:55.412Z,68.30
2019-03-17T06:00:28.568Z,68.00
2019-03-17T06:03:15.209Z,68.00
2019-03-17T06:05:48.825Z,68.00
2019-03-17T06:08:22.804Z,67.90
2019-03-17T06:11:24.978Z,67.80
2019-03-17T06:14:00.605Z,67.70
2019-03-17T06:16:59.357Z,67.60
2019-03-17T06:20:20.754Z,67.60
2019-03-17T06:22:56.266Z,67.60
2019-03-17T06:28:46.106Z,67.80
2019-03-17T06:31:45.212Z,67.90
2019-03-17T06:46:16.731Z,68.40
2019-03-17T06:49:27.806Z,68.40
2019-03-17T06:52:20.472Z,68.40
2019-03-17T06:55:36.354Z,68.30
2019-03-17T06:58:36.096Z,68.20
2019-03-17T07:01:14.862Z,68.20
2019-03-17T07:04:37.868Z,68.10
2019-03-17T07:07:29.703Z,68.10
2019-03-17T07:10:38.552Z,68.20
2019-03-17T07:14:08.937Z,68.30
2019-03-17T07:20:08.784Z,68.50
2019-03-17T07:23:35.777Z,68.60
2019-03-17T07:26:12.203Z,68.60
2019-03-17T07:28:42.084Z,68.50
2019-03-17T07:31:16.001Z,68.30
2019-03-17T07:33:57.849Z,68.30
2019-03-17T07:37:21.799Z,68.40
2019-03-17T07:40:21.140Z,68.40
2019-03-17T07:53:37.499Z,70.20
2019-03-17T07:56:43.834Z,70.80
2019-03-17T08:02:40.167Z,71.50
2019-03-17T08:05:40.671Z,71.80
2019-03-17T08:08:10.128Z,72.00
2019-03-17T08:10:42.883Z,72.40
2019-03-17T08:13:17.471Z,72.60
2019-03-17T08:15:52.150Z,72.70
2019-03-17T08:22:04.706Z,72.60
2019-03-17T08:25:37.281Z,72.80
2019-03-17T08:28:08.252Z,72.60
2019-03-17T08:30:52.646Z,72.80
2019-03-17T08:33:22.855Z,72.80
2019-03-17T08:35:52.294Z,72.80
2019-03-17T08:38:23.222Z,73.00
2019-03-17T08:40:55.682Z,72.80
2019-03-17T08:43:27.245Z,72.60
2019-03-17T08:45:58.655Z,72.40
2019-03-17T08:48:48.467Z,72.20
2019-03-17T09:18:43.162Z,70.90
2019-03-17T09:26:17.895Z,70.90
2019-03-17T09:29:07.060Z,70.80
2019-03-17T09:32:23.467Z,70.40
2019-03-17T09:38:21.920Z,69.80
2019-03-17T09:41:15.937Z,69.40
2019-03-17T10:18:56.721Z,62.80
2019-03-17T10:55:45.080Z,59.30
2019-03-17T11:06:47.797Z,58.30
2019-03-17T11:10:04.666Z,57.70
2019-03-17T11:12:33.778Z,56.90
2019-03-17T11:15:03.832Z,56.90
2019-03-17T11:17:34.539Z,57.00
2019-03-17T11:20:04.138Z,56.50
2019-03-17T11:22:36.625Z,55.90
2019-03-17T11:25:06.051Z,55.30
2019-03-17T11:27:38.178Z,55.30
2019-03-17T11:30:08.174Z,55.50
2019-03-17T11:32:43.764Z,55.80
2019-03-17T11:35:16.785Z,55.70
2019-03-17T11:37:46.590Z,55.40
2019-03-17T11:40:17.043Z,55.50
2019-03-17T11:43:06.708Z,55.20
2019-03-17T11:45:48.270Z,55.40
2019-03-17T11:48:17.656Z,55.20
2019-03-17T11:50:47.665Z,55.00
2019-03-17T11:53:22.026Z,54.40
2019-03-17T11:55:51.450Z,53.20
2019-03-17T11:58:21.413Z,52.70
2019-03-17T12:00:51.232Z,52.80
2019-03-17T12:03:23.331Z,52.60
2019-03-17T12:05:55.518Z,52.60
2019-03-17T12:08:24.571Z,52.60
2019-03-17T12:10:56.565Z,52.50
2019-03-17T12:13:26.678Z,52.60
2019-03-17T12:15:55.846Z,52.60
2019-03-17T12:18:24.907Z,52.50
2019-03-17T12:20:53.955Z,52.60
2019-03-17T12:23:23.194Z,52.50
2019-03-17T12:25:56.862Z,52.30
2019-03-17T12:28:33.651Z,52.30
2019-03-17T12:31:03.975Z,52.20
2019-03-17T12:33:36.378Z,52.20
2019-03-17T12:36:05.926Z,51.90
2019-03-17T12:38:37.938Z,51.60
2019-03-17T12:41:11.502Z,51.10
2019-03-17T12:43:49.582Z,51.10
2019-03-17T12:46:19.873Z,51.00
2019-03-17T12:49:11.190Z,50.80
2019-03-17T12:51:54.381Z,50.80
2019-03-17T12:54:23.591Z,50.10
2019-03-17T12:56:53.599Z,50.20
2019-03-17T12:59:25.370Z,50.50
2019-03-17T13:01:58.387Z,50.50
2019-03-17T13:04:27.359Z,50.50
2019-03-17T13:06:56.738Z,49.50
2019-03-17T13:09:26.457Z,49.30
2019-03-17T13:11:55.926Z,48.80
2019-03-17T13:14:29.535Z,48.40
2019-03-17T13:16:59.533Z,48.10
2019-03-17T13:19:28.806Z,47.90
2019-03-17T13:22:00.725Z,47.50
2019-03-17T13:24:29.792Z,47.50
2019-03-17T13:26:59.038Z,47.00
2019-03-17T13:29:28.077Z,46.90
2019-03-17T13:31:57.196Z,46.60
2019-03-17T13:34:28.032Z,45.90
2019-03-17T13:36:58.023Z,45.90
2019-03-17T13:39:30.120Z,45.90
2019-03-17T13:41:59.427Z,46.30
2019-03-17T13:44:28.882Z,45.60
2019-03-17T13:46:59.128Z,46.00
2019-03-17T13:49:35.536Z,46.60
2019-03-17T13:52:06.325Z,46.40
2019-03-17T13:54:39.104Z,46.30
2019-03-17T13:57:11.402Z,46.10
2019-03-17T13:59:40.718Z,45.80
2019-03-17T14:02:19.852Z,46.10
2019-03-17T14:04:48.960Z,46.20
2019-03-17T14:07:17.929Z,46.30
2019-03-17T14:09:47.782Z,45.60
2019-03-17T14:12:17.416Z,45.60
2019-03-17T14:14:52.773Z,45.20
2019-03-17T14:17:22.963Z,45.30
2019-03-17T14:19:52.804Z,45.60
2019-03-17T14:22:24.097Z,46.40
2019-03-17T14:24:53.359Z,47.10
2019-03-17T14:27:26.328Z,48.40
2019-03-17T14:29:56.869Z,47.20
2019-03-17T14:32:26.405Z,47.70
2019-03-17T14:34:56.741Z,48.20
2019-03-17T14:37:28.503Z,48.80
2019-03-17T14:39:58.754Z,49.00
2019-03-17T14:42:30.455Z,49.00
2019-03-17T14:45:03.380Z,48.80
2019-03-17T14:47:34.981Z,48.90
2019-03-17T14:50:04.621Z,48.90
2019-03-17T14:52:34.523Z,48.90
2019-03-17T14:55:03.859Z,49.20
2019-03-17T14:57:36.086Z,49.20
2019-03-17T15:00:08.855Z,49.40
2019-03-17T15:02:39.048Z,49.60
2019-03-17T15:05:09.832Z,49.90
2019-03-17T15:07:38.869Z,50.00
2019-03-17T15:10:10.272Z,50.00
2019-03-17T15:12:48.254Z,49.50
2019-03-17T15:15:17.804Z,49.10
2019-03-17T15:17:47.119Z,48.70
2019-03-17T15:20:17.826Z,48.50
2019-03-17T15:22:51.304Z,48.40
2019-03-17T15:25:20.682Z,48.50
2019-03-17T15:27:53.499Z,48.60
2019-03-17T15:30:24.298Z,48.50
2019-03-17T15:32:57.468Z,48.60
2019-03-17T15:35:26.563Z,48.60
2019-03-17T15:37:56.177Z,48.60
2019-03-17T15:40:26.867Z,48.30
2019-03-17T15:43:00.274Z,48.10
2019-03-17T15:45:30.430Z,48.20
2019-03-17T15:47:59.619Z,48.40
2019-03-17T15:50:30.568Z,48.40
2019-03-17T15:56:01.693Z,48.60
2019-03-17T15:58:32.377Z,48.90
2019-03-17T16:01:01.387Z,47.40
2019-03-17T16:03:34.593Z,45.20
2019-03-17T16:06:10.778Z,44.30
2019-03-17T16:09:21.891Z,43.00
2019-03-17T16:11:56.194Z,42.60
2019-03-17T16:17:23.709Z,42.90
2019-03-17T16:22:57.286Z,42.10
2019-03-17T16:29:31.938Z,42.50
2019-03-17T16:32:59.546Z,44.50
2019-03-17T16:35:47.942Z,45.30
2019-03-17T16:38:07.727Z,46.10
2019-03-17T16:40:38.229Z,46.90
2019-03-17T16:43:08.775Z,47.70
2019-03-17T16:45:40.330Z,48.30
2019-03-17T16:48:12.354Z,49.00
2019-03-17T16:50:44.012Z,49.20
2019-03-17T16:58:03.549Z,49.60
2019-03-17T17:07:04.350Z,50.20
2019-03-17T17:09:35.852Z,50.60
2019-03-17T17:12:10.937Z,50.40
2019-03-17T17:14:43.409Z,50.50
2019-03-17T17:17:13.134Z,50.60
2019-03-17T17:19:42.649Z,50.50
2019-03-17T17:22:23.525Z,50.50
2019-03-17T17:25:04.290Z,50.60
2019-03-17T17:27:36.705Z,50.50
2019-03-17T17:30:11.549Z,50.50
2019-03-17T17:33:03.596Z,50.50
2019-03-17T17:35:35.255Z,50.70
2019-03-17T17:38:10.242Z,50.60
2019-03-17T17:40:41.047Z,50.70
2019-03-17T17:43:12.120Z,50.70
2019-03-17T17:45:42.856Z,50.60
2019-03-17T17:48:17.812Z,50.70
2019-03-17T17:50:54.441Z,50.50
2019-03-17T17:53:29.863Z,50.30
2019-03-17T17:56:01.715Z,50.30
2019-03-17T17:58:31.017Z,50.10
2019-03-17T18:01:11.609Z,50.00
2019-03-17T18:03:57.664Z,50.00
2019-03-17T18:06:29.879Z,50.00
2019-03-17T18:09:00.013Z,50.30
2019-03-17T18:11:36.147Z,50.70
2019-03-17T18:14:12.816Z,50.90
2019-03-17T18:16:47.504Z,51.20
2019-03-17T18:19:26.286Z,51.10
2019-03-17T18:21:56.114Z,51.10
2019-03-17T18:24:32.624Z,51.40
2019-03-17T18:26:57.511Z,51.40
2019-03-17T18:29:31.095Z,51.10
2019-03-17T18:32:04.581Z,51.10
2019-03-17T18:34:38.539Z,51.30
2019-03-17T18:37:10.448Z,51.50
2019-03-17T18:39:47.233Z,51.70
2019-03-17T18:42:19.741Z,52.00
2019-03-17T18:44:55.857Z,52.30
2019-03-17T18:47:28.875Z,52.40
2019-03-17T18:50:15.339Z,52.50
2019-03-17T18:52:37.837Z,52.70
2019-03-17T18:55:08.564Z,52.70
2019-03-17T18:57:40.071Z,52.70
2019-03-17T19:00:12.903Z,52.80
2019-03-17T19:02:52.967Z,53.00
2019-03-17T19:05:42.892Z,53.00
2019-03-17T19:08:16.804Z,53.20
2019-03-17T19:10:52.706Z,53.10
2019-03-17T19:13:35.450Z,53.20
2019-03-17T19:16:12.161Z,53.50
2019-03-17T19:18:44.048Z,53.50
2019-03-17T19:21:15.302Z,53.60
2019-03-17T19:23:45.338Z,53.70
2019-03-17T19:26:14.389Z,53.70
2019-03-17T19:28:45.135Z,53.60
2019-03-17T19:31:14.389Z,53.60
2019-03-17T19:34:08.664Z,53.20
2019-03-17T19:36:38.686Z,53.20
2019-03-17T19:39:09.043Z,53.00
2019-03-17T19:41:38.438Z,53.00
2019-03-17T19:44:07.818Z,52.80
2019-03-17T19:46:42.074Z,52.60
2019-03-17T19:49:12.510Z,52.40
2019-03-17T19:51:43.307Z,52.20
2019-03-17T19:54:24.834Z,52.00
2019-03-17T19:57:00.163Z,52.10
2019-03-17T19:59:35.098Z,52.20
2019-03-17T20:02:04.224Z,52.30
2019-03-17T20:04:38.444Z,52.30
2019-03-17T20:07:12.015Z,52.20
2019-03-17T20:09:41.799Z,52.30
2019-03-17T20:12:16.179Z,52.40
2019-03-17T20:14:45.503Z,52.40
2019-03-17T20:17:18.249Z,52.40
2019-03-17T20:19:53.719Z,52.40
2019-03-17T20:22:22.846Z,52.50
2019-03-17T20:24:52.206Z,52.60
2019-03-17T20:27:21.155Z,52.60
2019-03-17T20:29:50.883Z,52.80
2019-03-17T20:32:19.940Z,53.00
2019-03-17T20:34:49.219Z,53.00
2019-03-17T20:37:18.396Z,53.00
2019-03-17T20:39:49.223Z,53.10
2019-03-17T20:42:18.483Z,53.00
2019-03-17T20:44:47.979Z,53.20
2019-03-17T20:47:21.137Z,53.20
2019-03-17T20:49:50.737Z,52.90
2019-03-17T20:52:20.442Z,53.30
2019-03-17T20:54:52.187Z,53.20
2019-03-17T20:57:28.847Z,53.40
2019-03-17T20:59:58.413Z,53.40
2019-03-17T21:02:33.674Z,53.30
2019-03-17T21:05:06.115Z,53.50
2019-03-17T21:07:35.227Z,53.60
2019-03-17T21:10:06.389Z,53.90
2019-03-17T21:12:38.914Z,54.00
2019-03-17T21:15:09.262Z,53.90
2019-03-17T21:17:42.311Z,54.10
2019-03-17T21:20:13.166Z,54.00
2019-03-17T21:22:50.387Z,54.10
2019-03-17T21:25:19.406Z,53.90
2019-03-17T21:27:52.246Z,53.90
2019-03-17T21:30:22.084Z,53.70
2019-03-17T21:33:00.159Z,53.80
2019-03-17T21:35:29.253Z,53.80
2019-03-17T21:38:01.202Z,53.90
2019-03-17T21:40:30.236Z,54.00
2019-03-17T21:42:59.447Z,53.90
2019-03-17T21:45:28.722Z,53.90
2019-03-17T21:47:59.763Z,54.00
2019-03-17T21:50:28.680Z,54.10
2019-03-17T21:52:57.831Z,54.10
2019-03-17T21:55:26.716Z,54.10
2019-03-17T21:57:55.580Z,54.20
2019-03-17T22:00:24.637Z,54.30
2019-03-17T22:02:55.383Z,54.40
2019-03-17T22:05:24.560Z,54.50
2019-03-17T22:07:53.785Z,54.60
2019-03-17T22:10:22.848Z,54.80
2019-03-17T22:13:00.314Z,55.10
2019-03-17T22:15:29.805Z,55.30
2019-03-17T22:18:03.324Z,55.40
2019-03-17T22:20:32.316Z,56.00
2019-03-17T22:23:01.195Z,57.10
2019-03-17T22:25:30.479Z,57.60
2019-03-17T22:28:08.315Z,58.10
2019-03-17T22:30:30.639Z,58.40
2019-03-17T22:33:00.267Z,58.60
2019-03-17T22:35:29.205Z,58.70
2019-03-17T22:37:58.198Z,58.80
2019-03-17T22:40:27.133Z,58.80
2019-03-17T22:42:56.002Z,59.10
2019-03-17T22:45:25.005Z,59.20
2019-03-17T22:47:53.934Z,59.30
2019-03-17T22:50:23.975Z,59.20
2019-03-17T22:52:52.906Z,59.20
2019-03-17T22:55:21.963Z,59.20
2019-03-17T22:57:50.977Z,59.00
2019-03-17T23:00:24.829Z,58.70
2019-03-17T23:02:55.169Z,58.50
2019-03-17T23:05:24.421Z,58.30
2019-03-17T23:07:54.545Z,58.30
2019-03-17T23:10:48.018Z,58.20
2019-03-17T23:13:20.622Z,58.10
2019-03-17T23:16:12.462Z,58.10
2019-03-17T23:18:57.774Z,58.30
2019-03-17T23:21:59.699Z,58.40
2019-03-17T23:25:11.626Z,58.60
2019-03-17T23:28:06.544Z,58.80
2019-03-17T23:30:39.729Z,58.70
2019-03-17T23:33:18.505Z,58.70
2019-03-17T23:36:00.876Z,58.70
2019-03-17T23:38:33.492Z,58.50
2019-03-17T23:41:08.154Z,58.50
2019-03-17T23:43:53.871Z,58.30
2019-03-17T23:46:26.686Z,58.30
2019-03-17T23:49:05.759Z,58.10
2019-03-17T23:51:47.047Z,58.30
2019-03-17T23:54:38.800Z,58.60
